createdAt,value
2023-02-24T00:02:14.890Z,100.00
2023-02-24T00:04:42.237Z,100.00
2023-02-24T00:07:11.109Z,100.00
2023-02-24T00:09:41.338Z,100.00
2023-02-24T00:12:11.271Z,100.00
2023-02-24T00:14:41.856Z,100.00
2023-02-24T00:17:09.254Z,100.00
2023-02-24T00:19:37.683Z,100.00
2023-02-24T00:22:07.409Z,100.00
2023-02-24T00:24:35.499Z,100.00
2023-02-24T00:27:07.511Z,100.00
2023-02-24T00:29:34.336Z,99.79
2023-02-24T00:32:01.240Z,100.00
2023-02-24T00:34:33.878Z,100.00
2023-02-24T00:37:01.882Z,100.00
2023-02-24T00:39:34.502Z,100.00
2023-02-24T00:42:05.894Z,100.00
2023-02-24T00:44:39.282Z,100.00
2023-02-24T00:47:07.799Z,100.00
2023-02-24T00:49:42.155Z,100.00
2023-02-24T00:52:15.448Z,100.00
2023-02-24T00:54:43.301Z,100.00
2023-02-24T00:57:10.399Z,100.00
2023-02-24T00:59:38.045Z,100.00
2023-02-24T01:02:07.006Z,100.00
2023-02-24T01:04:33.976Z,100.00
2023-02-24T01:07:00.597Z,100.00
2023-02-24T01:09:30.185Z,100.00
2023-02-24T01:12:15.694Z,100.00
2023-02-24T01:14:44.541Z,100.00
2023-02-24T01:17:10.962Z,100.00
2023-02-24T01:19:37.535Z,100.00
2023-02-24T01:22:06.656Z,100.00
2023-02-24T01:24:38.389Z,100.00
2023-02-24T01:27:05.745Z,100.00
2023-02-24T01:29:32.722Z,100.00
2023-02-24T01:31:59.311Z,100.00
2023-02-24T01:34:27.287Z,100.00
2023-02-24T01:36:54.503Z,100.00
2023-02-24T01:39:21.013Z,100.00
2023-02-24T01:41:50.164Z,100.00
2023-02-24T01:44:18.054Z,100.00
2023-02-24T01:46:47.428Z,100.00
2023-02-24T01:49:43.129Z,100.00
2023-02-24T01:52:15.026Z,100.00
2023-02-24T01:54:55.125Z,100.00
2023-02-24T01:57:24.031Z,100.00
2023-02-24T01:59:54.404Z,100.00
2023-02-24T02:02:23.261Z,100.00
2023-02-24T02:04:54.773Z,100.00
2023-02-24T02:07:24.600Z,100.00
2023-02-24T02:09:54.859Z,100.00
2023-02-24T02:12:23.333Z,100.00
2023-02-24T02:14:54.563Z,100.00
2023-02-24T02:17:26.923Z,100.00
2023-02-24T02:20:15.706Z,100.00
2023-02-24T02:22:54.253Z,100.00
2023-02-24T02:25:55.706Z,100.00
2023-02-24T02:28:47.042Z,100.00
2023-02-24T02:31:51.041Z,100.00
2023-02-24T02:34:39.458Z,100.00
2023-02-24T02:37:32.989Z,100.00
2023-02-24T02:40:24.092Z,100.00
2023-02-24T02:43:01.989Z,100.00
2023-02-24T02:45:47.597Z,100.00
2023-02-24T02:48:25.600Z,100.00
2023-02-24T02:50:55.298Z,100.00
2023-02-24T02:53:30.521Z,100.00
2023-02-24T02:56:03.484Z,100.00
2023-02-24T02:58:36.136Z,100.00
2023-02-24T03:01:07.246Z,100.00
2023-02-24T03:03:42.564Z,100.00
2023-02-24T03:06:11.970Z,100.00
2023-02-24T03:08:43.392Z,100.00
2023-02-24T03:11:14.995Z,100.00
2023-02-24T03:13:45.610Z,100.00
2023-02-24T03:16:14.632Z,100.00
2023-02-24T03:18:50.730Z,100.00
2023-02-24T03:21:23.819Z,100.00
2023-02-24T03:23:51.585Z,100.00
2023-02-24T03:26:24.749Z,100.00
2023-02-24T03:29:08.049Z,100.00
2023-02-24T03:31:46.401Z,100.00
2023-02-24T03:34:30.030Z,100.00
2023-02-24T03:36:57.399Z,100.00
2023-02-24T03:39:24.633Z,100.00
2023-02-24T03:42:04.787Z,100.00
2023-02-24T03:44:32.489Z,100.00
2023-02-24T03:47:00.789Z,100.00
2023-02-24T03:49:27.283Z,100.00
2023-02-24T03:52:21.354Z,100.00
2023-02-24T03:55:14.309Z,100.00
2023-02-24T03:58:04.378Z,100.00
2023-02-24T04:00:46.254Z,100.00
2023-02-24T04:03:39.148Z,100.00
2023-02-24T04:06:14.170Z,100.00
2023-02-24T04:08:50.407Z,100.00
2023-02-24T04:11:35.142Z,100.00
2023-02-24T04:14:34.707Z,100.00
2023-02-24T04:17:08.944Z,100.00
2023-02-24T04:19:40.500Z,100.00
2023-02-24T04:22:10.512Z,100.00
2023-02-24T04:24:39.416Z,100.00
2023-02-24T04:27:08.098Z,100.00
2023-02-24T04:29:41.256Z,100.00
2023-02-24T04:32:11.478Z,100.00
2023-02-24T04:34:40.266Z,100.00
2023-02-24T04:37:07.403Z,100.00
2023-02-24T04:39:38.304Z,100.00
2023-02-24T04:42:06.445Z,100.00
2023-02-24T04:44:33.317Z,100.00
2023-02-24T04:47:00.590Z,100.00
2023-02-24T04:49:27.603Z,100.00
2023-02-24T04:51:57.054Z,100.00
2023-02-24T04:54:24.268Z,99.89
2023-02-24T04:56:52.070Z,100.00
2023-02-24T04:59:20.956Z,100.00
2023-02-24T05:01:51.554Z,99.87
2023-02-24T05:04:19.068Z,100.00
2023-02-24T05:06:46.309Z,100.00
2023-02-24T05:09:16.978Z,100.00
2023-02-24T05:11:49.483Z,99.71
2023-02-24T05:14:20.722Z,100.00
2023-02-24T05:16:49.047Z,100.00
2023-02-24T05:19:37.438Z,98.90
2023-02-24T05:22:06.906Z,100.00
2023-02-24T05:24:34.667Z,99.93
2023-02-24T05:27:03.556Z,99.82
2023-02-24T05:29:32.841Z,100.00
2023-02-24T05:32:00.101Z,99.90
2023-02-24T05:34:30.518Z,99.81
2023-02-24T05:36:58.760Z,99.88
2023-02-24T05:39:26.953Z,100.00
2023-02-24T05:41:57.442Z,99.09
2023-02-24T05:44:26.396Z,99.37
2023-02-24T05:46:58.329Z,99.99
2023-02-24T05:49:32.951Z,99.75
2023-02-24T05:52:05.531Z,99.69
2023-02-24T05:54:35.619Z,100.00
2023-02-24T05:57:09.017Z,99.53
2023-02-24T05:59:35.654Z,99.64
2023-02-24T06:02:07.042Z,99.91
2023-02-24T06:04:40.500Z,99.52
2023-02-24T06:07:13.857Z,100.00
2023-02-24T06:09:42.986Z,99.60
2023-02-24T06:12:10.301Z,99.40
2023-02-24T06:14:37.198Z,99.45
2023-02-24T06:17:03.793Z,99.35
2023-02-24T06:19:33.480Z,100.00
2023-02-24T06:22:04.198Z,99.89
2023-02-24T06:24:33.232Z,100.00
2023-02-24T06:27:05.847Z,100.00
2023-02-24T06:29:33.349Z,100.00
2023-02-24T06:31:59.994Z,99.30
2023-02-24T06:34:27.755Z,98.81
2023-02-24T06:36:54.353Z,99.87
2023-02-24T06:39:21.851Z,98.56
2023-02-24T06:41:49.746Z,98.80
2023-02-24T06:44:16.165Z,98.58
2023-02-24T06:46:42.602Z,98.25
2023-02-24T06:49:09.920Z,98.34
2023-02-24T06:51:36.869Z,99.01
2023-02-24T06:54:03.556Z,98.81
2023-02-24T06:56:32.272Z,98.25
2023-02-24T06:58:59.121Z,98.45
2023-02-24T07:01:28.760Z,98.14
2023-02-24T07:04:17.814Z,98.70
2023-02-24T07:06:49.292Z,98.23
2023-02-24T07:09:18.754Z,98.00
2023-02-24T07:11:48.254Z,97.66
2023-02-24T07:14:14.777Z,98.18
2023-02-24T07:16:42.658Z,98.70
2023-02-24T07:19:13.738Z,98.59
2023-02-24T07:21:46.560Z,98.10
2023-02-24T07:24:20.148Z,98.09
2023-02-24T07:26:51.694Z,97.44
2023-02-24T07:29:18.484Z,98.18
2023-02-24T07:31:45.127Z,97.34
2023-02-24T07:34:14.992Z,97.15
2023-02-24T07:36:49.177Z,97.78
2023-02-24T07:39:17.054Z,97.02
2023-02-24T07:41:45.438Z,97.16
2023-02-24T07:44:13.597Z,97.42
2023-02-24T07:46:42.928Z,97.44
2023-02-24T07:49:13.198Z,97.19
2023-02-24T07:51:39.689Z,97.56
2023-02-24T07:54:08.784Z,96.38
2023-02-24T07:56:37.325Z,97.36
2023-02-24T07:59:11.082Z,97.10
2023-02-24T08:01:40.843Z,96.95
2023-02-24T08:04:12.434Z,97.25
2023-02-24T08:06:46.131Z,97.18
2023-02-24T08:09:18.952Z,97.06
2023-02-24T08:11:53.794Z,98.19
2023-02-24T08:14:32.684Z,97.50
2023-02-24T08:16:59.489Z,98.00
2023-02-24T08:19:32.793Z,97.72
2023-02-24T08:22:19.360Z,98.84
2023-02-24T08:25:00.655Z,98.30
2023-02-24T08:27:32.564Z,98.86
2023-02-24T08:30:03.282Z,99.21
2023-02-24T08:32:34.428Z,99.45
2023-02-24T08:35:03.519Z,99.30
2023-02-24T08:37:39.576Z,99.06
2023-02-24T08:40:31.515Z,99.57
2023-02-24T08:42:58.699Z,99.79
2023-02-24T08:45:28.774Z,99.97
2023-02-24T08:48:00.522Z,99.32
2023-02-24T08:50:31.263Z,99.45
2023-02-24T08:52:58.891Z,100.00
2023-02-24T08:55:30.248Z,99.78
2023-02-24T08:58:01.751Z,100.00
2023-02-24T09:00:48.942Z,99.99
2023-02-24T09:03:33.466Z,100.00
2023-02-24T09:06:06.528Z,99.62
2023-02-24T09:08:38.509Z,100.00
2023-02-24T09:11:13.878Z,100.00
2023-02-24T09:13:51.896Z,100.00
2023-02-24T09:16:20.854Z,100.00
2023-02-24T09:19:07.362Z,99.78
2023-02-24T09:21:48.923Z,99.28
2023-02-24T09:24:27.001Z,99.98
2023-02-24T09:27:00.020Z,99.69
2023-02-24T09:29:33.639Z,100.00
2023-02-24T09:32:04.735Z,99.72
2023-02-24T09:34:43.963Z,100.00
2023-02-24T09:37:26.663Z,100.00
2023-02-24T09:39:54.415Z,100.00
2023-02-24T09:42:28.401Z,100.00
2023-02-24T09:45:00.178Z,100.00
2023-02-24T09:47:39.603Z,100.00
2023-02-24T09:50:35.011Z,100.00
2023-02-24T09:53:17.164Z,100.00
2023-02-24T09:56:00.286Z,100.00
2023-02-24T09:58:43.933Z,100.00
2023-02-24T10:01:33.601Z,100.00
2023-02-24T10:04:20.663Z,100.00
2023-02-24T10:07:03.982Z,100.00
2023-02-24T10:09:34.518Z,100.00
2023-02-24T10:12:11.618Z,100.00
2023-02-24T10:15:18.955Z,100.00
2023-02-24T10:17:55.423Z,100.00
2023-02-24T10:20:40.371Z,100.00
2023-02-24T10:23:15.981Z,100.00
2023-02-24T10:25:53.654Z,100.00
2023-02-24T10:28:35.837Z,100.00
2023-02-24T10:31:25.419Z,100.00
2023-02-24T10:33:59.060Z,100.00
2023-02-24T10:36:35.087Z,100.00
2023-02-24T10:39:33.218Z,100.00
2023-02-24T10:42:17.747Z,100.00
2023-02-24T10:45:02.367Z,100.00
2023-02-24T10:47:31.039Z,100.00
2023-02-24T10:50:00.819Z,100.00
2023-02-24T10:52:58.238Z,100.00
2023-02-24T10:55:44.997Z,100.00
2023-02-24T10:58:28.147Z,100.00
2023-02-24T11:01:15.715Z,100.00
2023-02-24T11:04:28.326Z,100.00
2023-02-24T11:07:12.828Z,100.00
2023-02-24T11:09:52.870Z,100.00
2023-02-24T11:12:43.468Z,100.00
2023-02-24T11:15:40.612Z,100.00
2023-02-24T11:18:08.810Z,100.00
2023-02-24T11:20:49.828Z,100.00
2023-02-24T11:23:37.305Z,100.00
2023-02-24T11:26:16.926Z,100.00
2023-02-24T11:29:15.290Z,100.00
2023-02-24T11:31:48.888Z,100.00
2023-02-24T11:34:18.602Z,100.00
2023-02-24T11:37:03.208Z,100.00
2023-02-24T11:39:37.886Z,100.00
2023-02-24T11:42:11.490Z,100.00
2023-02-24T11:44:52.192Z,100.00
2023-02-24T11:47:30.458Z,100.00
2023-02-24T11:50:24.360Z,100.00
2023-02-24T11:52:55.073Z,100.00
2023-02-24T11:55:46.798Z,100.00
2023-02-24T11:58:42.660Z,100.00
2023-02-24T12:01:16.980Z,100.00
2023-02-24T12:04:03.046Z,100.00
2023-02-24T12:06:36.379Z,100.00
2023-02-24T12:09:15.292Z,100.00
2023-02-24T12:12:03.150Z,100.00
2023-02-24T12:14:39.492Z,100.00
2023-02-24T12:17:33.552Z,100.00
2023-02-24T12:20:05.973Z,100.00
2023-02-24T12:22:45.950Z,100.00
2023-02-24T12:25:15.026Z,100.00
2023-02-24T12:28:10.908Z,100.00
2023-02-24T12:30:49.357Z,100.00
2023-02-24T12:33:31.621Z,100.00
2023-02-24T12:36:11.881Z,100.00
2023-02-24T12:38:46.435Z,100.00
2023-02-24T12:41:32.421Z,100.00
2023-02-24T12:44:20.161Z,100.00
2023-02-24T12:46:54.762Z,100.00
2023-02-24T12:49:42.997Z,100.00
2023-02-24T12:52:34.277Z,100.00
2023-02-24T12:55:17.381Z,100.00
2023-02-24T12:57:57.817Z,100.00
2023-02-24T13:00:47.321Z,100.00
2023-02-24T13:03:47.294Z,100.00
2023-02-24T13:06:47.919Z,99.62
2023-02-24T13:09:14.249Z,99.27
2023-02-24T13:11:48.148Z,98.54
2023-02-24T13:14:22.146Z,97.46
2023-02-24T13:16:48.655Z,97.29
2023-02-24T13:19:29.822Z,97.11
2023-02-24T13:22:03.528Z,95.42
2023-02-24T13:24:30.106Z,95.53
2023-02-24T13:27:08.067Z,94.26
2023-02-24T13:29:52.074Z,91.80
2023-02-24T13:32:26.425Z,90.94
2023-02-24T13:34:53.142Z,90.19
2023-02-24T13:37:34.539Z,89.31
2023-02-24T13:40:12.158Z,88.36
2023-02-24T13:42:38.646Z,90.19
2023-02-24T13:45:27.744Z,91.75
2023-02-24T13:48:12.410Z,93.59
2023-02-24T13:50:59.122Z,95.62
2023-02-24T13:53:31.717Z,97.52
2023-02-24T13:56:24.926Z,98.53
2023-02-24T13:59:05.044Z,99.10
2023-02-24T14:01:44.466Z,100.00
2023-02-24T14:04:57.615Z,100.00
2023-02-24T14:07:31.713Z,100.00
2023-02-24T14:10:02.384Z,100.00
2023-02-24T14:12:32.154Z,99.86
2023-02-24T14:14:59.488Z,100.00
2023-02-24T14:17:32.058Z,99.48
2023-02-24T14:20:06.585Z,99.69
2023-02-24T14:22:34.614Z,99.60
2023-02-24T14:25:02.787Z,99.22
2023-02-24T14:27:29.371Z,98.42
2023-02-24T14:29:55.898Z,98.64
2023-02-24T14:32:25.937Z,97.59
2023-02-24T14:34:54.158Z,95.91
2023-02-24T14:37:25.872Z,95.72
2023-02-24T14:39:55.661Z,94.81
2023-02-24T14:42:22.333Z,95.19
2023-02-24T14:44:51.701Z,93.44
2023-02-24T14:47:20.656Z,92.54
2023-02-24T14:50:02.828Z,93.13
2023-02-24T14:52:41.418Z,92.95
2023-02-24T14:55:16.537Z,92.49
2023-02-24T14:57:50.415Z,92.45
2023-02-24T15:00:23.979Z,92.50
2023-02-24T15:02:57.363Z,92.21
2023-02-24T15:05:24.058Z,91.23
2023-02-24T15:07:51.849Z,90.80
2023-02-24T15:10:28.980Z,90.71
2023-02-24T15:13:18.977Z,90.24
2023-02-24T15:15:45.925Z,90.58
2023-02-24T15:18:24.428Z,90.05
2023-02-24T15:21:03.889Z,89.52
2023-02-24T15:23:39.331Z,89.01
2023-02-24T15:26:08.653Z,88.36
2023-02-24T15:28:37.304Z,89.00
2023-02-24T15:31:17.235Z,89.64
2023-02-24T15:33:52.776Z,88.91
2023-02-24T15:36:22.894Z,89.26
2023-02-24T15:38:56.804Z,89.20
2023-02-24T15:41:23.762Z,88.88
2023-02-24T15:43:53.073Z,88.85
2023-02-24T15:46:22.890Z,89.67
2023-02-24T15:48:53.140Z,88.74
2023-02-24T15:51:31.472Z,88.62
2023-02-24T15:54:01.152Z,88.65
2023-02-24T15:56:28.531Z,89.17
2023-02-24T15:58:54.966Z,89.34
2023-02-24T16:01:21.409Z,89.13
2023-02-24T16:03:49.631Z,89.86
2023-02-24T16:06:21.626Z,89.76
2023-02-24T16:08:50.312Z,90.38
2023-02-24T16:11:19.941Z,90.78
2023-02-24T16:13:52.545Z,92.49
2023-02-24T16:16:21.155Z,93.74
2023-02-24T16:18:47.854Z,94.12
2023-02-24T16:21:14.384Z,94.87
2023-02-24T16:23:40.825Z,94.93
2023-02-24T16:26:16.042Z,94.49
2023-02-24T16:28:43.354Z,94.97
2023-02-24T16:31:09.843Z,94.71
2023-02-24T16:33:51.958Z,95.30
2023-02-24T16:36:21.640Z,94.94
2023-02-24T16:38:51.521Z,93.42
2023-02-24T16:41:18.212Z,93.60
2023-02-24T16:43:44.637Z,92.50
2023-02-24T16:46:18.445Z,92.25
2023-02-24T16:48:47.477Z,92.16
2023-02-24T16:51:14.812Z,92.22
2023-02-24T16:53:41.844Z,92.62
2023-02-24T16:56:08.861Z,92.69
2023-02-24T16:58:36.621Z,92.91
2023-02-24T17:01:04.608Z,92.94
2023-02-24T17:03:46.337Z,93.74
2023-02-24T17:06:12.776Z,93.90
2023-02-24T17:08:41.544Z,94.10
2023-02-24T17:11:12.342Z,94.73
2023-02-24T17:13:38.842Z,95.54
2023-02-24T17:16:05.406Z,96.92
2023-02-24T17:18:32.009Z,97.56
2023-02-24T17:20:58.439Z,97.43
2023-02-24T17:23:24.925Z,97.46
2023-02-24T17:25:55.577Z,97.27
2023-02-24T17:28:22.464Z,98.14
2023-02-24T17:30:49.053Z,98.01
2023-02-24T17:33:15.803Z,96.46
2023-02-24T17:35:43.531Z,96.86
2023-02-24T17:38:15.817Z,95.97
2023-02-24T17:40:43.693Z,95.83
2023-02-24T17:43:10.532Z,95.12
2023-02-24T17:45:42.617Z,95.29
2023-02-24T17:48:09.985Z,93.89
2023-02-24T17:50:36.508Z,94.14
2023-02-24T17:53:04.086Z,93.81
2023-02-24T17:55:30.626Z,94.37
2023-02-24T17:57:59.589Z,94.34
2023-02-24T18:00:27.732Z,94.20
2023-02-24T18:02:54.514Z,93.95
2023-02-24T18:05:21.211Z,94.27
2023-02-24T18:07:47.914Z,93.16
2023-02-24T18:10:15.403Z,92.83
2023-02-24T18:12:41.992Z,93.08
2023-02-24T18:15:09.812Z,93.46
2023-02-24T18:17:37.773Z,93.92
2023-02-24T18:20:06.471Z,93.86
2023-02-24T18:22:33.157Z,94.27
2023-02-24T18:25:00.860Z,93.04
2023-02-24T18:27:28.262Z,92.60
2023-02-24T18:29:54.994Z,91.83
2023-02-24T18:32:21.826Z,91.69
2023-02-24T18:34:49.349Z,91.66
2023-02-24T18:37:15.895Z,91.48
2023-02-24T18:39:42.535Z,91.30
2023-02-24T18:42:09.758Z,90.69
2023-02-24T18:44:36.529Z,91.16
2023-02-24T18:47:09.167Z,90.91
2023-02-24T18:49:36.515Z,90.77
2023-02-24T18:52:05.184Z,89.98
2023-02-24T18:54:32.972Z,90.43
2023-02-24T18:56:59.596Z,90.08
2023-02-24T18:59:26.138Z,89.96
2023-02-24T19:01:53.996Z,88.92
2023-02-24T19:04:23.226Z,88.62
2023-02-24T19:06:50.863Z,87.91
2023-02-24T19:09:21.650Z,88.05
2023-02-24T19:11:50.336Z,88.42
2023-02-24T19:14:17.419Z,88.45
2023-02-24T19:16:44.910Z,88.24
2023-02-24T19:19:14.722Z,88.14
2023-02-24T19:21:41.439Z,88.68
2023-02-24T19:24:10.919Z,88.43
2023-02-24T19:26:37.610Z,87.95
2023-02-24T19:29:04.461Z,88.16
2023-02-24T19:31:33.084Z,88.45
2023-02-24T19:34:06.894Z,88.84
2023-02-24T19:36:35.670Z,88.00
2023-02-24T19:39:02.497Z,88.63
2023-02-24T19:41:29.647Z,88.18
2023-02-24T19:43:56.151Z,88.48
2023-02-24T19:46:23.370Z,87.80
2023-02-24T19:48:51.284Z,87.79
2023-02-24T19:51:21.892Z,87.82
2023-02-24T19:53:56.252Z,87.68
2023-02-24T19:56:28.354Z,86.81
2023-02-24T19:58:57.364Z,87.14
2023-02-24T20:01:25.976Z,87.00
2023-02-24T20:03:55.393Z,86.68
2023-02-24T20:06:27.079Z,86.90
2023-02-24T20:08:54.671Z,86.65
2023-02-24T20:11:25.305Z,85.85
2023-02-24T20:13:53.170Z,86.30
2023-02-24T20:16:23.716Z,85.83
2023-02-24T20:18:51.682Z,86.39
2023-02-24T20:21:18.267Z,87.67
2023-02-24T20:23:44.810Z,86.82
2023-02-24T20:26:16.359Z,86.88
2023-02-24T20:28:47.462Z,86.52
2023-02-24T20:31:17.716Z,86.66
2023-02-24T20:33:45.217Z,86.52
2023-02-24T20:36:14.584Z,86.89
2023-02-24T20:38:41.138Z,86.01
2023-02-24T20:41:07.774Z,87.04
2023-02-24T20:43:34.828Z,86.18
2023-02-24T20:46:16.315Z,86.20
2023-02-24T20:48:43.094Z,85.49
2023-02-24T20:51:10.598Z,85.35
2023-02-24T20:53:55.934Z,85.54
2023-02-24T20:56:25.163Z,85.52
2023-02-24T20:58:54.287Z,85.58
2023-02-24T21:01:21.453Z,86.04
2023-02-24T21:03:48.397Z,85.75
2023-02-24T21:06:18.660Z,85.61
2023-02-24T21:08:45.780Z,85.30
2023-02-24T21:11:14.555Z,85.90
2023-02-24T21:13:42.975Z,86.16
2023-02-24T21:16:11.130Z,86.05
2023-02-24T21:18:38.685Z,86.54
2023-02-24T21:21:06.904Z,87.27
2023-02-24T21:23:34.524Z,88.16
2023-02-24T21:26:01.130Z,88.62
2023-02-24T21:28:27.699Z,88.67
2023-02-24T21:30:54.257Z,89.73
2023-02-24T21:33:21.097Z,89.99
2023-02-24T21:36:03.221Z,90.51
2023-02-24T21:38:34.292Z,90.92
2023-02-24T21:41:07.055Z,91.34
2023-02-24T21:43:34.258Z,90.88
2023-02-24T21:46:02.810Z,91.21
2023-02-24T21:48:29.551Z,90.82
2023-02-24T21:51:00.438Z,91.04
2023-02-24T21:53:27.557Z,90.13
2023-02-24T21:56:16.466Z,90.63
2023-02-24T21:58:53.741Z,90.56
2023-02-24T22:01:23.631Z,90.67
2023-02-24T22:03:54.207Z,90.94
2023-02-24T22:06:21.693Z,91.33
2023-02-24T22:08:48.334Z,91.73
2023-02-24T22:11:17.214Z,91.80
2023-02-24T22:13:45.069Z,91.99
2023-02-24T22:16:14.913Z,91.51
2023-02-24T22:18:42.010Z,92.10
2023-02-24T22:21:17.074Z,92.62
2023-02-24T22:23:46.049Z,92.09
2023-02-24T22:26:13.102Z,92.45
2023-02-24T22:28:41.999Z,93.06
2023-02-24T22:31:10.376Z,92.71
2023-02-24T22:33:40.955Z,92.98
2023-02-24T22:36:09.667Z,93.64
2023-02-24T22:38:37.694Z,93.86
2023-02-24T22:41:08.931Z,93.68
2023-02-24T22:43:36.466Z,93.56
2023-02-24T22:46:06.542Z,94.04
2023-02-24T22:48:35.870Z,94.40
2023-02-24T22:51:06.054Z,94.68
2023-02-24T22:53:36.034Z,94.36
2023-02-24T22:56:02.896Z,95.18
2023-02-24T22:58:29.762Z,94.51
2023-02-24T23:00:58.570Z,95.35
2023-02-24T23:03:33.081Z,94.98
2023-02-24T23:06:02.039Z,94.57
2023-02-24T23:08:33.144Z,94.13
2023-02-24T23:11:05.684Z,94.85
2023-02-24T23:13:38.323Z,94.91
2023-02-24T23:16:07.392Z,94.86
2023-02-24T23:18:35.045Z,94.24
2023-02-24T23:21:10.002Z,94.82
2023-02-24T23:23:37.622Z,95.27
2023-02-24T23:26:05.566Z,94.71
2023-02-24T23:28:32.616Z,95.04
2023-02-24T23:30:59.295Z,94.90
2023-02-24T23:33:26.353Z,94.77
2023-02-24T23:35:52.775Z,95.34
2023-02-24T23:38:19.278Z,94.73
2023-02-24T23:40:50.945Z,94.97
2023-02-24T23:43:18.200Z,94.63
2023-02-24T23:45:45.309Z,94.66
2023-02-24T23:48:14.424Z,94.19
2023-02-24T23:50:42.929Z,94.22
2023-02-24T23:53:09.921Z,94.36
2023-02-24T23:55:40.113Z,94.41
2023-02-24T23:58:07.601Z,94.27
